Bloomdale, Ohio
Current Conditions -  °F | °C
As of 8:53 AM on Sunday 21 Dec 2014 (Local Time) from KFDY Reporting Station
Haze Haze  
Wind Chill: 25°   Ceiling: 1600
Heat Index: 25°   Visibility: 2mi
Dew Point: 22°   Wind: 3mph
Humidity: 88%   Direction: 160°SSE
Pressure: 30.3"   Gusts: NA
Location:  41.17°N, 83.56°W
Report Text: KFDY 211353Z AUTO 16003KT 2SM BR OVC016 M04/M06 A3030 RMK AO2 SLP265 T10391056
Loading
Personal Weather Stations






























Interactive Weather Map New forecast layout! Learn more

10-Day Weather Forecast

Advertisements
Track Severe Weather on mobile